Carson Sink, Nevada Weather observations

Data are for observation ending at time listed.
 Day   Time    Ave.   Ave.  Ave.  Vector   Max.   Stn.    Total    Solar   Ave.  
  of    of     Air    Rel.  Wind   Wind    Wind   Baro.  Precip.   Rad.    Soil  
Year   Day     Temp.  Hum.  Speed  Dir.    Gust   Pres.                    Temp. 
2014   (PST)    F      %     mph   deg.    mph     mb.     in.     W/m2     F   
------------------------------------------------------------------------------
 262    1:30   63.0    63    0.0    29      0.1   880.8    0.00       0     78.0
 262    1:40   64.5    56    0.1    52      0.1   880.8    0.00       0     77.8
 262    1:50   65.3    52    0.1    75      0.1   880.9    0.00       0     77.7
 262    2:00   65.3    52    0.1    77      0.1   880.9    0.00       0     77.5
 262    2:10   64.3    56    0.1    45      0.1   880.9    0.00       0     77.3
 262    2:20   64.3    54    0.1    25      0.1   881.0    0.00       0     77.2
 262    2:30   63.6    57    0.1   311      0.1   881.2    0.00       0     77.0
 262    2:40   63.0    57    0.1   284      0.1   881.4    0.00       0     76.9
 262    2:50   64.1    53    0.1   283      0.1   881.4    0.00       0     76.7
 262    3:00   63.9    53    0.1   280      0.1   881.6    0.00       0     76.6
 262    3:10   63.4    54    0.1   279      0.1   881.6    0.00       0     76.4
 262    3:20   64.0    51    0.1   283      0.1   881.7    0.00       0     76.3
 262    3:30   64.0    48    0.1   288      0.1   881.7    0.00       0     76.2
 262    3:40   64.1    48    0.1   307      0.1   881.7    0.00       0     76.1
 262    3:50   63.4    51    0.1   327      0.1   881.7    0.00       0     76.0
 262    4:00   63.5    50    0.1   337      0.1   881.8    0.00       0     75.8
 262    4:10   63.2    51    0.1   330      0.1   881.9    0.00       0     75.7
 262    4:20   64.4    47    0.1   325      0.1   882.0    0.00       0     75.6
 262    4:30   64.5    45    0.1   318      0.1   882.0    0.00       0     75.5
 262    4:40   65.5    42    0.1   332      0.1   882.0    0.00       0     75.4
 262    4:50   64.8    44    0.1   330      0.1   882.1    0.00       0     75.3
 262    5:00   63.4    49    0.1   327      0.1   882.2    0.00       0     75.2
 262    5:10   63.0    51    0.1   331      0.1   882.2    0.00       0     75.1
 262    5:20   62.2    54    0.1   342      0.1   882.3    0.00       0     75.0
 262    5:30   60.8    58    0.1     6      0.1   882.4    0.00       0     74.9
 262    5:40   60.0    60    0.1   350      0.1   882.5    0.00       2     74.8
 262    5:50   60.5    60    0.1    17      0.1   882.6    0.00       7     74.8
 262    6:00   59.8    61    0.1   351      0.1   882.7    0.00      19     74.6
 262    6:10   59.0    63    0.1   350      0.1   882.8    0.00      37     74.5
 262    6:20   60.3    60    0.1     8      0.1   882.8    0.00      60     74.4
 262    6:30   61.2    58    0.1    13      0.1   882.9    0.00      87     74.3
 262    6:40   61.8    55    0.1    20      0.1   882.9    0.00     114     74.2
 262    6:50   62.0    55    0.1    28      0.1   883.0    0.00     145     74.1
 262    7:00   61.8    56    0.1    33      0.1   882.9    0.00     178     74.0
 262    7:10   62.6    53    0.0    34      0.1   883.0    0.00     207     74.0
 262    7:20   63.6    51    0.0     0      0.0   882.9    0.00     236     73.9
 262    7:30   64.9    49    0.0     0      0.0   882.8    0.00     271     73.8
 262    7:40   65.4    50    0.0     0      0.0   882.8    0.00     306     73.8
 262    7:50   66.3    47    0.0     0      0.0   882.9    0.00     338     73.7
 262    8:00   67.6    43    0.0     0      0.0   883.0    0.00     375     73.7
 262    8:10   68.2    40    0.0     0      0.0   882.9    0.00     401     73.7
 262    8:20   68.2    41    0.0     0      0.0   883.0    0.00     430     73.7
 262    8:30   68.9    40    0.0     0      0.0   883.0    0.00     459     73.8
 262    8:40   69.4    38    0.0     0      0.0   883.0    0.00     487     73.8
 262    8:50   69.8    37    0.0     0      0.0   883.0    0.00     515     74.0
 262    9:00   70.4    35    0.0     0      0.0   882.9    0.00     543     74.0
 262    9:10   71.2    34    0.0     0      0.0   882.9    0.00     562     74.2
 262    9:20   71.8    33    0.0     0      0.0   882.9    0.00     587     74.4
 262    9:30   72.6    32    0.0     0      0.0   882.8    0.00     613     74.5
 262    9:40   73.4    31    0.0     0      0.0   882.8    0.00     632     74.7
 262    9:50   73.8    30    0.0     0      0.0   882.7    0.00     653     75.0
 262   10:00   74.2    30    0.0     0      0.0   882.8    0.00     671     75.2
 262   10:10   74.6    29    0.0     0      0.0   882.7    0.00     684     75.5
 262   10:20   75.0    29    0.0     0      0.0   882.7    0.00     696     75.7
 262   10:30   75.6    28    0.0     0      0.0   882.7    0.00     714     76.0
 262   10:40   76.8    28    0.0     0      0.0   882.5    0.00     726     76.4
 262   10:50   77.3    27    0.0     0      0.0   882.4    0.00     730     76.7
 262   11:00   77.9    26    0.0     0      0.0   882.3    0.00     740     77.0
 262   11:10   79.2    25    0.0     0      0.0   882.2    0.00     746     77.4
 262   11:20   79.8    23    0.0     0      0.0   882.1    0.00     746     77.8
 262   11:30   79.9    23    0.0     0      0.0   882.0    0.00     754     78.2
 262   11:40   81.2    22    0.0     0      0.0   881.8    0.00     752     78.5
 262   11:50   81.2    21    0.0     0      0.0   881.7    0.00     752     78.9
 262   12:00   81.5    21    0.0     0      0.0   881.6    0.00     751     79.2
 262   12:10   81.8    21    0.0     0      0.0   881.5    0.00     747     79.6
 262   12:20   82.8    20    0.0     0      0.0   881.4    0.00     739     80.0
 262   12:30   82.9    20    0.0     0      0.0   881.3    0.00     731     80.4
 262   12:40   83.0    20    0.0     0      0.0   881.2    0.00     715     80.7
 262   12:50   83.3    20    0.0     0      0.0   881.0    0.00     714     81.1
 262   13:00   83.6    19    0.0     0      0.0   881.0    0.00     700     81.5
 262   13:10   84.0    19    0.0     0      0.0   880.9    0.00     693     81.8
 262   13:20   83.5    19    0.0     0      0.0   880.8    0.00     676     82.2
 262   13:30   84.1    19    0.0     0      0.0   880.7    0.00     658     82.5
 262   13:40   85.0    18    0.0     0      0.0   880.6    0.00     637     82.9
 262   13:50   85.5    18    0.0     0      0.0   880.4    0.00     621     83.2
 262   14:00   85.0    18    0.0     0      0.0   880.3    0.00     600     83.6
 262   14:10   85.3    18    0.0     0      0.0   880.2    0.00     581     83.9
 262   14:20   85.7    17    0.0     0      0.0   880.0    0.00     557     84.2
 262   14:30   85.9    17    0.0     0      0.0   879.9    0.00     530     84.5
 262   14:40   86.4    16    0.0     0      0.0   879.8    0.00     506     84.7
 262   14:50   86.8    16    0.0     0      0.0   879.8    0.00     486     85.0
 262   15:00   86.3    16    0.0     0      0.0   879.7    0.00     465     85.2
 262   15:10   86.2    16    0.0     0      0.0   879.6    0.00     439     85.3
 262   15:20   86.6    16    0.0     0      0.0   879.5    0.00     413     85.4
 262   15:30   87.0    15    0.0     0      0.0   879.4    0.00     386     85.5
 262   15:40   86.9    15    0.0     0      0.0   879.4    0.00     352     85.5
 262   15:50   87.4    14    0.0     0      0.0   879.3    0.00     319     85.5
 262   16:00   87.1    14    0.0     0      0.0   879.3    0.00     292     85.6
 262   16:10   87.2    14    0.0     0      0.0   879.3    0.00     264     85.6
 262   16:20   87.2    14    0.0     0      0.0   879.3    0.00     232     85.6
 262   16:30   87.3    14    0.0     0      0.0   879.3    0.00     202     85.6
 262   16:40   87.2    14    0.0     0      0.0   879.3    0.00     171     85.7
 262   16:50   87.1    14    0.0     0      0.0   879.4    0.00     145     85.7
 262   17:00   86.9    14    0.0     0      0.0   879.3    0.00     122     85.6
 262   17:10   86.4    15    0.0     0      0.0   879.3    0.00      92     85.6
 262   17:20   85.9    16    0.0     0      0.0   879.3    0.00      63     85.6
 262   17:30   85.2    16    0.0     0      0.0   879.3    0.00      42     85.5
 262   17:40   84.6    17    0.0     0      0.0   879.3    0.00      26     85.4
 262   17:50   83.9    17    0.0     0      0.0   879.3    0.00      14     85.3
 262   18:00   82.8    18    0.0     0      0.0   879.4    0.00       5     85.2
 262   18:10   82.0    18    0.0     0      0.0   879.5    0.00       1     85.0
 262   18:20   81.5    19    0.0     0      0.0   879.5    0.00       0     84.9
 262   18:30   80.5    20    0.0     0      0.0   879.7    0.00       0     84.7
 262   18:40   79.0    21    0.0     0      0.0   879.7    0.00       0     84.6
 262   18:50   78.3    21    0.0     0      0.0   879.8    0.00       0     84.4
 262   19:00   77.4    22    0.0     0      0.0   879.9    0.00       0     84.2
 262   19:10   76.7    23    0.0     0      0.0   880.0    0.00       0     84.0
 262   19:20   75.9    24    0.0     0      0.0   880.1    0.00       0     83.8
 262   19:30   75.2    24    0.0     0      0.0   880.2    0.00       0     83.6
 262   19:40   74.4    25    0.0     0      0.0   880.3    0.00       0     83.4
 262   19:50   73.3    26    0.0     0      0.0   880.4    0.00       0     83.2
 262   20:00   72.1    27    0.0     0      0.0   880.5    0.00       0     83.0
 262   20:10   72.7    26    0.0     0      0.0   880.6    0.00       0     82.8
 262   20:20   72.0    27    0.0     0      0.0   880.7    0.00       0     82.6
 262   20:30   70.3    28    0.0     0      0.0   880.8    0.00       0     82.4
 262   20:40   70.4    28    0.0     0      0.0   880.8    0.00       0     82.2
 262   20:50   71.4    27    0.0     0      0.0   880.8    0.00       0     82.0
 262   21:00   72.2    26    0.0     0      0.0   881.0    0.00       0     81.8
 262   21:10   71.9    26    0.0     0      0.0   881.1    0.00       0     81.6
 262   21:20   72.1    26    0.0     0      0.0   881.1    0.00       0     81.4
 262   21:30   72.2    26    0.0     0      0.0   881.2    0.00       0     81.2
 262   21:40   71.7    27    0.0     0      0.0   881.3    0.00       0     81.0
 262   21:50   71.2    28    0.0     0      0.0   881.3    0.00       0     80.8
 262   22:00   70.6    28    0.0     0      0.0   881.3    0.00       0     80.6
 262   22:10   69.6    30    0.0     0      0.0   881.4    0.00       0     80.4
 262   22:20   69.0    30    0.0     0      0.0   881.4    0.00       0     80.2
 262   22:30   69.2    30    0.0     0      0.0   881.4    0.00       0     80.1
 262   22:40   69.0    30    0.0     0      0.0   881.4    0.00       0     79.9
 262   22:50   68.8    30    0.0     0      0.0   881.4    0.00       0     79.8
 262   23:00   68.5    31    0.0     0      0.0   881.5    0.00       0     79.6
 262   23:10   67.8    31    0.0     0      0.0   881.5    0.00       0     79.4
 262   23:20   67.5    32    0.0     0      0.0   881.4    0.00       0     79.2
 262   23:30   68.8    30    0.0     0      0.0   881.4    0.00       0     79.1
 262   23:40   67.4    32    0.0     0      0.0   881.5    0.00       0     78.9
 262   23:50   68.6    30    0.0     0      0.0   881.5    0.00       0     78.8
 263    0:00   66.7    32    0.0     0      0.0   881.6    0.00       0     78.6
 263    0:10   70.4    28    0.0     0      0.0   881.8    0.00       0     78.5
 263    0:20   73.5    24    0.0     0      0.0   881.9    0.00       0     78.3
 263    0:30   71.0    26    0.0     0      0.0   882.1    0.00       0     78.2
 263    0:40   69.5    28    0.0     0      0.0   882.1    0.00       0     78.0
 263    0:50   69.0    28    0.0     0      0.0   882.1    0.00       0     77.9
 263    1:00   69.1    28    0.0     0      0.0   882.1    0.00       0     77.8
 263    1:10   70.7    26    0.0     0      0.0   881.8    0.00       0     77.6
 263    1:20   72.1    25    0.0     0      0.0   881.8    0.00       0     77.5

Return to Carson Sink graphs page.


Western Regional Climate Center,wrcc@dri.edu